Time;durP1;ratioP1;P1;durP2;ratioP2;P2;SDS_P1;SDS_P2;PMS_P1;PMS_P2;Temp;Humidity;BMP_temperature;BMP_pressure;BME280_temperature;BME280_humidity;BME280_pressure;Samples;Min_cycle;Max_cycle;Signal;HPM_P1;HPM_P2
2024/03/31 00:00:04;;;;;;;3.67;1.70;;;;;;;11.87;55.20;94750.75;5147792;27;20437;-67
2024/03/31 00:02:30;;;;;;;7.93;2.55;;;;;;;12.10;54.44;94746.09;5135153;27;20046;-67
2024/03/31 00:04:56;;;;;;;5.97;1.92;;;;;;;11.77;54.31;94697.84;5153936;27;20015;-67
2024/03/31 00:07:21;;;;;;;4.40;2.20;;;;;;;11.89;52.70;94735.78;5136589;27;20035;-67
2024/03/31 00:09:48;;;;;;;5.22;1.90;;;;;;;11.70;53.38;94735.75;5102006;27;20471;-67
2024/03/31 00:12:14;;;;;;;5.55;2.30;;;;;;;11.66;53.91;94732.59;5136677;27;20018;-67
2024/03/31 00:14:39;;;;;;;4.63;2.00;;;;;;;11.93;55.63;94737.19;5119945;27;20508;-67
2024/03/31 00:17:05;;;;;;;6.15;1.98;;;;;;;11.77;53.79;94729.88;5156007;27;20034;-67
2024/03/31 00:19:31;;;;;;;5.82;2.22;;;;;;;11.68;51.95;94719.47;5137115;27;20035;-67
2024/03/31 00:21:57;;;;;;;3.72;1.77;;;;;;;11.62;54.54;94711.25;5137129;27;20030;-67
2024/03/31 00:24:23;;;;;;;5.95;2.40;;;;;;;11.75;53.38;94723.97;5137034;27;20109;-67
2024/03/31 00:26:49;;;;;;;5.10;2.03;;;;;;;11.94;54.58;94711.97;5119035;27;20019;-67
2024/03/31 00:29:14;;;;;;;8.77;2.30;;;;;;;11.65;54.41;94711.94;5155520;27;20037;-67
2024/03/31 00:31:40;;;;;;;5.93;2.30;;;;;;;11.77;54.39;94703.03;5155290;27;20026;-67
2024/03/31 00:34:05;;;;;;;3.97;1.92;;;;;;;11.78;55.06;94709.88;5155323;27;20041;-67
2024/03/31 00:36:30;;;;;;;5.88;1.70;;;;;;;11.72;55.81;94719.06;5155481;27;20019;-67
2024/03/31 00:38:56;;;;;;;6.95;1.80;;;;;;;11.64;55.40;94713.69;5155117;27;20046;-67
2024/03/31 00:41:21;;;;;;;4.72;2.20;;;;;;;11.60;54.28;94710.56;5155555;27;20035;-67
2024/03/31 00:43:47;;;;;;;4.47;1.88;;;;;;;11.62;54.65;94719.06;5154938;27;20027;-67
2024/03/31 00:46:12;;;;;;;4.68;1.80;;;;;;;11.56;54.91;94727.41;5136808;27;20023;-67
2024/03/31 00:48:38;;;;;;;6.68;2.10;;;;;;;11.77;56.64;94729.06;5119556;27;20035;-67
2024/03/31 00:51:03;;;;;;;4.20;2.15;;;;;;;11.74;56.09;94718.94;5136551;27;20033;-67
2024/03/31 00:53:29;;;;;;;6.85;2.28;;;;;;;11.33;55.39;94721.59;5154717;27;20079;-67
2024/03/31 00:55:54;;;;;;;5.25;2.30;;;;;;;11.22;56.67;94723.50;5136491;27;20031;-67
2024/03/31 00:58:20;;;;;;;7.97;2.35;;;;;;;11.28;55.70;94722.97;5136211;27;20031;-67
2024/03/31 01:00:45;;;;;;;6.22;2.55;;;;;;;11.16;54.73;94704.06;5154684;27;20420;-67
2024/03/31 01:03:10;;;;;;;5.85;1.98;;;;;;;10.96;55.59;94682.38;5119099;27;20033;-67
2024/03/31 01:05:36;;;;;;;7.50;2.60;;;;;;;11.00;56.86;94708.94;5119073;27;20034;-67
2024/03/31 01:08:01;;;;;;;6.20;2.10;;;;;;;11.16;57.77;94717.88;5118902;27;20377;-67
2024/03/31 01:10:27;;;;;;;6.90;2.10;;;;;;;11.36;58.47;94715.31;5136274;27;20492;-67
2024/03/31 01:12:52;;;;;;;5.35;2.03;;;;;;;11.28;57.62;94717.75;5154507;27;20193;-67
2024/03/31 01:15:18;;;;;;;7.25;2.00;;;;;;;11.08;58.00;94704.72;5136009;27;20042;-67
2024/03/31 01:17:43;;;;;;;6.70;2.13;;;;;;;10.78;59.02;94717.72;5154293;27;20105;-67
2024/03/31 01:20:09;;;;;;;8.57;2.45;;;;;;;10.67;60.35;94729.03;5154568;27;20423;-67
2024/03/31 01:22:34;;;;;;;4.28;1.85;;;;;;;10.61;59.88;94739.94;5118835;27;20072;-67
2024/03/31 01:25:01;;;;;;;8.15;2.50;;;;;;;10.55;59.33;94736.09;5135728;27;20110;-67
2024/03/31 01:27:26;;;;;;;6.45;2.20;;;;;;;10.61;59.35;94732.97;5154294;27;20554;-67
2024/03/31 01:29:52;;;;;;;4.82;2.20;;;;;;;10.34;60.41;94733.53;5154044;27;20026;-67
2024/03/31 01:32:17;;;;;;;5.20;2.03;;;;;;;10.17;61.82;94741.81;5135674;27;20031;-67
2024/03/31 01:34:44;;;;;;;4.93;2.20;;;;;;;10.34;61.60;94737.91;5153944;27;20031;-67
2024/03/31 01:37:10;;;;;;;7.35;2.45;;;;;;;10.40;61.42;94727.00;5136339;27;20019;-66
2024/03/31 01:39:35;;;;;;;8.85;2.83;;;;;;;10.53;60.00;94743.22;5118459;27;20059;-67
2024/03/31 01:42:01;;;;;;;7.30;2.25;;;;;;;10.41;59.75;94752.00;5135484;27;20480;-67
2024/03/31 01:44:26;;;;;;;6.18;2.50;;;;;;;10.33;60.64;94742.25;5135372;27;20030;-67
2024/03/31 01:46:51;;;;;;;5.18;2.10;;;;;;;10.22;61.45;94745.72;5135578;27;20030;-67
2024/03/31 01:49:17;;;;;;;5.45;2.10;;;;;;;10.29;62.58;94748.66;5153712;27;20089;-67
2024/03/31 01:51:42;;;;;;;7.28;2.40;;;;;;;10.20;62.37;94750.22;5154168;27;20023;-67
2024/03/31 01:54:08;;;;;;;5.40;1.90;;;;;;;10.28;61.41;94742.66;5153480;27;20158;-67
2024/03/31 01:56:33;;;;;;;6.47;2.13;;;;;;;10.32;62.10;94745.00;5154045;27;20038;-67
2024/03/31 01:58:59;;;;;;;5.55;2.28;;;;;;;10.29;62.88;94756.44;5153644;27;20030;-67
2024/03/31 02:01:25;;;;;;;4.82;2.40;;;;;;;10.28;61.73;94749.63;5118021;27;20026;-67
2024/03/31 02:03:50;;;;;;;5.65;2.58;;;;;;;10.39;61.04;94735.72;5153472;27;20030;-67
2024/03/31 02:06:16;;;;;;;5.57;2.17;;;;;;;10.35;59.04;94739.53;5135194;27;20038;-67
2024/03/31 02:08:41;;;;;;;4.55;2.47;;;;;;;10.43;58.81;94745.72;5117731;27;20249;-67
2024/03/31 02:11:06;;;;;;;7.88;2.65;;;;;;;10.64;57.94;94747.47;5134062;27;20023;-66
2024/03/31 02:13:32;;;;;;;7.00;2.40;;;;;;;10.79;57.32;94750.56;5153421;27;20038;-67
2024/03/31 02:15:57;;;;;;;6.18;2.20;;;;;;;10.97;56.29;94746.41;5134900;27;20412;-67
2024/03/31 02:18:23;;;;;;;9.85;3.33;;;;;;;11.03;57.88;94751.09;5153226;27;20109;-66
2024/03/31 02:20:49;;;;;;;5.88;2.45;;;;;;;11.14;55.02;94751.00;5153284;27;20028;-66
2024/03/31 02:23:14;;;;;;;4.45;2.10;;;;;;;11.17;55.87;94750.72;5134807;27;20034;-67
2024/03/31 02:25:40;;;;;;;6.35;2.35;;;;;;;11.17;55.71;94757.69;5153094;27;20499;-67
2024/03/31 02:28:05;;;;;;;6.68;2.25;;;;;;;11.27;55.01;94757.72;5153230;27;20307;-67
2024/03/31 02:30:31;;;;;;;7.25;1.90;;;;;;;11.24;55.39;94755.41;5152999;27;20050;-66
2024/03/31 02:32:56;;;;;;;7.72;2.33;;;;;;;11.41;55.68;94754.75;5134533;27;20037;-67
2024/03/31 02:35:22;;;;;;;6.60;2.40;;;;;;;11.39;54.77;94749.69;5152841;27;20419;-66
2024/03/31 02:37:48;;;;;;;4.50;2.22;;;;;;;11.34;54.08;94764.06;5134516;27;20034;-66
2024/03/31 02:40:14;;;;;;;5.97;2.03;;;;;;;11.56;53.48;94753.44;5134709;27;20412;-67
2024/03/31 02:42:40;;;;;;;8.30;2.55;;;;;;;11.52;53.70;94757.25;5134271;27;20023;-67
2024/03/31 02:45:05;;;;;;;5.13;1.92;;;;;;;11.44;54.12;94762.28;5117429;27;20082;-67
2024/03/31 02:47:31;;;;;;;9.98;2.20;;;;;;;11.42;54.21;94761.59;5152775;27;20478;-67
2024/03/31 02:49:56;;;;;;;5.07;2.00;;;;;;;11.47;53.59;94762.00;5134577;27;20023;-66
2024/03/31 02:52:22;;;;;;;5.35;2.15;;;;;;;11.58;53.40;94772.31;5152513;27;20050;-67
2024/03/31 02:54:47;;;;;;;5.35;2.30;;;;;;;11.49;53.52;94773.13;5134204;27;20416;-67
2024/03/31 02:57:12;;;;;;;6.55;2.58;;;;;;;11.56;53.24;94779.44;5134181;27;20026;-67
2024/03/31 02:59:38;;;;;;;8.20;2.25;;;;;;;11.53;53.49;94777.09;5152673;27;20038;-67
2024/03/31 03:02:04;;;;;;;7.18;2.38;;;;;;;11.53;53.16;94778.88;5153010;27;20026;-67
2024/03/31 03:04:29;;;;;;;5.65;2.13;;;;;;;11.36;54.01;94778.53;5134349;27;20051;-67
2024/03/31 03:06:55;;;;;;;5.28;2.15;;;;;;;11.41;53.51;94775.56;5116523;27;20511;-67
2024/03/31 03:09:20;;;;;;;6.60;2.30;;;;;;;11.34;53.70;94772.69;5134151;27;20432;-68
2024/03/31 03:11:46;;;;;;;8.57;2.50;;;;;;;11.36;54.35;94770.75;5134124;27;20058;-66
2024/03/31 03:14:11;;;;;;;7.72;2.42;;;;;;;11.33;54.19;94778.81;5152426;27;20042;-67
2024/03/31 03:16:37;;;;;;;6.57;2.30;;;;;;;11.17;54.59;94778.47;5133969;27;20018;-66
2024/03/31 03:19:03;;;;;;;4.80;1.98;;;;;;;11.27;54.16;94768.13;5134302;27;20034;-67
2024/03/31 03:21:28;;;;;;;5.20;2.00;;;;;;;11.30;53.99;94773.88;5116767;27;20023;-67
2024/03/31 03:23:54;;;;;;;5.88;2.03;;;;;;;11.30;54.42;94788.66;5120251;27;20030;-67
2024/03/31 03:26:19;;;;;;;4.88;2.00;;;;;;;11.13;54.64;94793.53;5157024;27;20079;-67
2024/03/31 03:28:46;;;;;;;4.97;1.90;;;;;;;11.10;54.71;94793.78;5156734;27;20408;-66
2024/03/31 03:31:11;;;;;;;5.18;1.98;;;;;;;11.06;55.04;94795.03;5121219;27;20034;-67
2024/03/31 03:33:37;;;;;;;7.18;1.98;;;;;;;10.96;55.31;94796.75;5156564;27;20027;-67
2024/03/31 03:36:03;;;;;;;6.82;2.13;;;;;;;10.99;55.40;94786.09;5137897;27;20027;-67
2024/03/31 03:38:29;;;;;;;5.57;2.40;;;;;;;10.86;56.03;94788.06;5137814;27;20034;-67
2024/03/31 03:40:54;;;;;;;3.58;1.98;;;;;;;10.87;55.31;94781.94;5156636;27;20495;-67
2024/03/31 03:43:20;;;;;;;7.03;2.20;;;;;;;10.97;55.52;94782.78;5137694;27;20027;-68
2024/03/31 03:45:46;;;;;;;4.78;2.30;;;;;;;10.91;55.50;94793.72;5120746;27;20030;-67
2024/03/31 03:48:11;;;;;;;4.85;1.88;;;;;;;10.88;55.55;94796.56;5137639;27;20176;-67
2024/03/31 03:50:37;;;;;;;6.20;2.03;;;;;;;10.90;55.29;94792.06;5137908;27;20035;-67
2024/03/31 03:53:03;;;;;;;9.18;2.00;;;;;;;10.88;55.31;94799.16;5137700;27;20035;-66
2024/03/31 03:55:29;;;;;;;4.30;2.20;;;;;;;10.80;55.71;94796.38;5137522;27;20033;-66
2024/03/31 03:57:54;;;;;;;4.68;1.80;;;;;;;10.65;55.43;94757.75;5137844;27;20650;-69
2024/03/31 04:00:20;;;;;;;5.50;2.13;;;;;;;10.92;55.33;94816.13;5137472;27;20023;-67
2024/03/31 04:02:45;;;;;;;5.63;2.22;;;;;;;10.74;55.87;94808.13;5137426;27;20041;-67
2024/03/31 04:05:10;;;;;;;3.17;1.90;;;;;;;10.84;55.86;94813.38;5155753;27;20019;-67
2024/03/31 04:07:36;;;;;;;6.47;2.08;;;;;;;10.84;56.10;94821.19;5120231;27;20548;-67
2024/03/31 04:10:02;;;;;;;4.03;1.88;;;;;;;10.69;57.10;94820.66;5155847;27;20029;-66
2024/03/31 04:12:27;;;;;;;8.52;1.98;;;;;;;10.71;56.19;94804.00;5137323;27;20034;-66
2024/03/31 04:14:53;;;;;;;5.63;2.17;;;;;;;10.73;56.18;94822.88;5136974;27;20027;-68
2024/03/31 04:17:18;;;;;;;4.80;1.98;;;;;;;10.70;56.44;94827.53;5155738;27;20080;-68
2024/03/31 04:19:43;;;;;;;5.65;1.70;;;;;;;10.68;56.11;94824.22;5155441;27;20480;-65
2024/03/31 04:22:09;;;;;;;7.18;1.83;;;;;;;10.74;56.83;94829.72;5156092;27;20029;-66
2024/03/31 04:24:34;;;;;;;4.78;1.85;;;;;;;10.67;56.24;94843.34;5136921;27;20046;-67
2024/03/31 04:27:00;;;;;;;5.15;1.98;;;;;;;10.61;56.08;94838.66;5155995;27;20499;-67
2024/03/31 04:29:25;;;;;;;5.57;1.98;;;;;;;10.70;55.81;94843.94;5155319;27;20034;-67
2024/03/31 04:31:55;;;;;;;4.50;2.10;;;;;;;10.68;56.02;94845.81;5136899;27;20026;-67
2024/03/31 04:34:20;;;;;;;4.07;1.90;;;;;;;10.63;55.92;94847.16;5118896;27;20091;-67
2024/03/31 04:36:47;;;;;;;7.25;2.60;;;;;;;10.60;55.78;94842.22;5119946;27;20292;-67
2024/03/31 04:39:12;;;;;;;4.68;1.80;;;;;;;10.53;55.83;94834.13;5102622;27;20089;-66
2024/03/31 04:41:38;;;;;;;5.57;2.05;;;;;;;10.56;56.07;94840.81;5136639;27;20110;-66
2024/03/31 04:44:03;;;;;;;5.30;2.00;;;;;;;10.60;55.64;94824.03;5155241;27;20484;-66
2024/03/31 04:46:28;;;;;;;7.13;1.80;;;;;;;10.64;55.71;94839.25;5119384;27;20027;-66
2024/03/31 04:48:54;;;;;;;5.28;2.58;;;;;;;10.59;55.95;94831.00;5119360;27;20045;-66
2024/03/31 04:51:20;;;;;;;3.70;1.67;;;;;;;10.70;55.99;94833.53;5136511;27;20114;-67
2024/03/31 04:53:45;;;;;;;6.10;2.10;;;;;;;10.81;55.00;94845.63;5155053;27;20079;-67
2024/03/31 04:56:11;;;;;;;3.90;1.80;;;;;;;10.57;55.65;94842.47;5119296;27;20442;-67
2024/03/31 04:58:37;;;;;;;4.53;1.80;;;;;;;10.64;55.72;94844.44;5154874;27;20030;-67
2024/03/31 05:01:02;;;;;;;4.85;1.90;;;;;;;10.66;55.55;94852.09;5119024;27;20026;-68
2024/03/31 05:03:28;;;;;;;5.15;1.95;;;;;;;10.70;55.71;94871.69;5136303;27;20031;-67
2024/03/31 05:05:53;;;;;;;4.07;1.80;;;;;;;10.55;55.76;94871.16;5118938;27;20027;-67
2024/03/31 05:08:19;;;;;;;4.25;1.85;;;;;;;10.62;55.66;94861.91;5119088;27;20022;-68
2024/03/31 05:10:54;;;;;;;5.07;2.00;;;;;;;10.85;55.30;94877.38;5136041;27;20023;-67
2024/03/31 05:13:19;;;;;;;6.07;1.88;;;;;;;10.79;55.02;94864.91;5154575;27;20412;-67
2024/03/31 05:15:45;;;;;;;4.70;1.85;;;;;;;10.93;54.76;94887.97;5118910;27;20030;-67
2024/03/31 05:18:13;;;;;;;6.07;1.98;;;;;;;10.99;55.19;94890.06;5136069;27;20064;-67
2024/03/31 05:20:38;;;;;;;4.15;1.60;;;;;;;11.06;55.20;94896.41;5119921;27;20054;-67
2024/03/31 05:23:03;;;;;;;5.20;1.90;;;;;;;11.22;54.83;94901.13;5118638;27;20031;-68
2024/03/31 05:25:34;;;;;;;5.20;2.00;;;;;;;11.19;54.21;94907.41;5135844;27;20173;-67
2024/03/31 05:27:59;;;;;;;6.23;1.70;;;;;;;11.48;53.57;94898.94;5135732;27;20446;-68
2024/03/31 05:30:26;;;;;;;7.03;1.95;;;;;;;11.50;53.75;94904.00;5118768;27;20030;-67
2024/03/31 05:32:52;;;;;;;5.95;2.10;;;;;;;11.50;54.22;94898.78;5136020;27;20026;-67
2024/03/31 05:35:17;;;;;;;5.30;1.83;;;;;;;11.65;54.02;94909.69;5135646;27;20407;-67
2024/03/31 05:37:42;;;;;;;7.00;2.30;;;;;;;11.77;54.07;94906.84;5118243;27;20027;-67
2024/03/31 05:40:08;;;;;;;7.53;1.90;;;;;;;11.92;53.02;94901.31;5118796;27;20047;-67
2024/03/31 05:42:34;;;;;;;7.75;2.22;;;;;;;12.16;52.67;94893.97;5153691;27;20035;-68
2024/03/31 05:44:59;;;;;;;4.45;1.90;;;;;;;12.19;52.29;94874.63;5135425;27;20045;-68
2024/03/31 05:47:25;;;;;;;4.07;1.92;;;;;;;12.48;51.76;94898.09;5134194;27;20035;-68
2024/03/31 05:49:50;;;;;;;6.10;1.85;;;;;;;12.60;51.20;94885.78;5135462;27;20067;-67
2024/03/31 05:52:15;;;;;;;5.18;1.88;;;;;;;12.71;51.59;94896.88;5135028;27;20019;-69
2024/03/31 05:54:41;;;;;;;3.70;1.90;;;;;;;12.87;51.05;94896.31;5153715;27;20519;-68
2024/03/31 05:57:06;;;;;;;5.32;2.03;;;;;;;12.93;50.81;94893.16;5153389;27;20022;-67
2024/03/31 05:59:32;;;;;;;5.30;1.98;;;;;;;13.17;50.05;94892.69;5135137;27;20039;-67
2024/03/31 06:01:57;;;;;;;6.38;1.85;;;;;;;13.40;50.53;94890.63;5135369;27;20022;-68
2024/03/31 06:04:22;;;;;;;3.95;1.88;;;;;;;13.52;49.27;94886.03;5118073;27;20034;-67
2024/03/31 06:06:48;;;;;;;4.95;1.73;;;;;;;13.81;48.88;94885.91;5153467;27;20026;-67
2024/03/31 06:09:13;;;;;;;4.88;2.30;;;;;;;14.20;49.04;94888.28;5153668;27;20042;-67
2024/03/31 06:11:39;;;;;;;3.90;1.70;;;;;;;14.37;48.92;94885.84;5117910;27;20030;-67
2024/03/31 06:14:04;;;;;;;3.20;1.70;;;;;;;14.69;47.62;94886.19;5117581;27;20121;-67
2024/03/31 06:16:29;;;;;;;3.75;1.60;;;;;;;14.90;46.88;94893.69;5135093;27;20026;-67
2024/03/31 06:18:55;;;;;;;4.85;1.90;;;;;;;14.98;47.04;94892.94;5134716;27;20543;-67
2024/03/31 06:21:20;;;;;;;5.50;1.95;;;;;;;14.99;46.11;94894.63;5134891;27;20491;-67
2024/03/31 06:23:46;;;;;;;4.32;1.75;;;;;;;15.08;46.28;94898.09;5134573;27;20064;-67
2024/03/31 06:26:11;;;;;;;8.80;2.00;;;;;;;15.07;45.62;94901.69;5117534;27;20030;-67
2024/03/31 06:28:36;;;;;;;3.60;1.67;;;;;;;15.05;46.23;94896.63;5134383;27;20026;-67
2024/03/31 06:31:06;;;;;;;8.48;3.33;;;;;;;14.92;47.92;94898.78;5153358;27;20026;-67
2024/03/31 06:33:31;;;;;;;9.52;2.88;;;;;;;14.73;49.04;94892.75;5152888;27;20415;-67
2024/03/31 06:35:56;;;;;;;7.57;2.28;;;;;;;15.42;47.71;94887.69;5117355;27;20027;-67
2024/03/31 06:38:22;;;;;;;7.97;2.65;;;;;;;15.83;47.02;94890.56;5134189;27;20389;-67
2024/03/31 06:40:47;;;;;;;10.00;2.97;;;;;;;15.96;46.84;94890.09;5153496;27;20083;-67
2024/03/31 06:43:13;;;;;;;13.38;6.10;;;;;;;15.84;47.23;94889.56;5117445;27;20484;-67
2024/03/31 06:45:38;;;;;;;10.43;4.07;;;;;;;15.86;47.03;94890.25;5134189;27;20457;-67
2024/03/31 06:48:04;;;;;;;10.95;4.30;;;;;;;15.73;47.59;94892.47;5134336;27;20023;-67
2024/03/31 06:50:29;;;;;;;15.95;9.43;;;;;;;15.88;47.90;94893.53;5116903;27;20480;-67
2024/03/31 06:52:54;;;;;;;11.90;6.07;;;;;;;15.81;47.70;94898.56;5134267;27;20023;-67
2024/03/31 06:55:20;;;;;;;7.68;3.17;;;;;;;15.80;47.75;94901.34;5134072;27;20030;-67
2024/03/31 06:57:45;;;;;;;9.52;2.95;;;;;;;16.20;47.00;94899.84;5152287;27;20031;-67
2024/03/31 07:00:11;;;;;;;13.90;4.05;;;;;;;16.47;46.98;94902.22;5116851;27;20420;-67
2024/03/31 07:02:37;;;;;;;7.15;4.22;;;;;;;16.34;46.84;94901.03;5134235;27;20542;-68
2024/03/31 07:05:02;;;;;;;10.27;4.32;;;;;;;16.44;46.43;94902.53;5152402;27;20031;-67
2024/03/31 07:07:28;;;;;;;10.48;3.00;;;;;;;16.79;46.54;94897.19;5134028;27;20026;-67
2024/03/31 07:09:53;;;;;;;4.88;2.47;;;;;;;16.92;46.37;94906.22;5152216;27;20480;-68
2024/03/31 07:12:18;;;;;;;8.20;4.68;;;;;;;16.34;47.78;94901.84;5152503;27;20034;-67
2024/03/31 07:14:44;;;;;;;6.82;3.90;;;;;;;16.29;47.86;94904.13;5152188;27;20026;-67
2024/03/31 07:17:09;;;;;;;10.82;4.75;;;;;;;16.31;47.84;94905.63;5152904;27;20485;-67
2024/03/31 07:19:36;;;;;;;12.10;4.63;;;;;;;16.32;47.98;94909.06;5152473;27;20027;-67
2024/03/31 07:22:01;;;;;;;6.32;2.90;;;;;;;16.32;48.18;94911.66;5134350;27;20035;-67
2024/03/31 07:24:27;;;;;;;7.75;3.35;;;;;;;16.34;48.08;94914.16;5116844;27;20038;-67
2024/03/31 07:26:52;;;;;;;8.05;2.92;;;;;;;16.20;47.75;94886.75;5133819;27;20468;-67
2024/03/31 07:29:18;;;;;;;7.88;3.10;;;;;;;16.70;47.44;94912.91;5133880;27;20034;-67
2024/03/31 07:31:43;;;;;;;15.32;6.70;;;;;;;16.70;47.51;94906.84;5133935;27;20047;-67
2024/03/31 07:34:09;;;;;;;14.10;5.25;;;;;;;17.06;46.49;94911.81;5116897;27;20031;-67
2024/03/31 07:36:34;;;;;;;6.78;3.00;;;;;;;17.02;46.41;94913.97;5133774;27;20023;-68
2024/03/31 07:38:59;;;;;;;9.20;2.40;;;;;;;17.14;45.88;94899.50;5152036;27;20055;-67
2024/03/31 07:41:26;;;;;;;7.07;2.45;;;;;;;17.40;46.03;94903.75;5133939;27;20051;-67
2024/03/31 07:43:52;;;;;;;6.43;2.55;;;;;;;18.04;44.08;94899.31;5152158;27;20540;-67
2024/03/31 07:46:17;;;;;;;7.75;2.30;;;;;;;17.82;43.59;94900.06;5116673;27;20026;-67
2024/03/31 07:48:42;;;;;;;6.45;2.42;;;;;;;18.43;41.50;94893.22;5133584;27;20049;-67
2024/03/31 07:51:08;;;;;;;6.70;2.40;;;;;;;17.96;42.28;94894.09;5152219;27;20038;-67
2024/03/31 07:53:33;;;;;;;8.27;2.58;;;;;;;18.60;41.27;94898.38;5152039;27;20027;-67
2024/03/31 07:55:59;;;;;;;6.63;2.63;;;;;;;18.57;40.74;94890.84;5152280;27;20030;-67
2024/03/31 07:58:25;;;;;;;18.02;10.52;;;;;;;18.70;41.28;94891.91;5133616;27;20497;-67
2024/03/31 08:00:51;;;;;;;10.35;6.38;;;;;;;18.41;40.33;94891.75;5133769;27;20018;-67
2024/03/31 08:03:17;;;;;;;8.60;3.10;;;;;;;18.78;38.47;94891.06;5152000;27;20537;-67
2024/03/31 08:05:42;;;;;;;10.23;2.97;;;;;;;18.68;39.25;94878.09;5099389;27;20034;-67
2024/03/31 08:08:07;;;;;;;7.75;2.53;;;;;;;18.86;39.35;94892.78;5116365;27;20038;-67
2024/03/31 08:10:33;;;;;;;6.97;2.97;;;;;;;19.13;40.40;94876.44;5154787;27;20019;-67
2024/03/31 08:13:01;;;;;;;10.20;4.10;;;;;;;19.16;39.19;94881.34;5137190;27;20030;-67
2024/03/31 08:15:27;;;;;;;8.50;2.67;;;;;;;18.87;39.81;94874.19;5120925;27;20030;-67
2024/03/31 08:17:52;;;;;;;11.95;5.10;;;;;;;19.01;40.20;94882.34;5155572;27;20080;-66
2024/03/31 08:20:17;;;;;;;11.98;4.60;;;;;;;19.13;40.21;94878.25;5155785;27;20046;-67
2024/03/31 08:22:43;;;;;;;7.55;2.75;;;;;;;18.96;39.51;94880.22;5155449;27;20030;-67
2024/03/31 08:25:08;;;;;;;7.72;2.20;;;;;;;18.69;40.32;94871.84;5137193;27;20023;-67
2024/03/31 08:27:34;;;;;;;7.10;2.63;;;;;;;18.79;40.31;94876.09;5136841;27;20019;-67
2024/03/31 08:29:59;;;;;;;7.97;2.75;;;;;;;19.33;39.48;94862.78;5136997;27;20022;-67
2024/03/31 08:32:24;;;;;;;9.57;2.78;;;;;;;19.23;39.36;94863.03;5155239;27;20056;-67
2024/03/31 08:34:50;;;;;;;5.80;2.35;;;;;;;19.26;39.12;94867.13;5136905;27;20022;-67
2024/03/31 08:37:16;;;;;;;8.80;2.53;;;;;;;19.01;38.94;94871.81;5120324;27;20027;-67
2024/03/31 08:39:42;;;;;;;6.22;2.40;;;;;;;19.19;38.49;94861.75;5119511;27;20054;-67
2024/03/31 08:42:44;;;;;;;5.50;1.95;;;;;;;19.13;38.43;94847.47;5155750;27;20419;-66
2024/03/31 08:45:13;;;;;;;6.80;2.10;;;;;;;19.47;38.21;94859.34;5104489;27;20035;-67
2024/03/31 08:47:39;;;;;;;5.90;2.20;;;;;;;19.27;38.07;94863.50;5119732;27;20484;-67
2024/03/31 08:50:05;;;;;;;4.72;2.30;;;;;;;19.07;38.13;94857.91;5119438;27;20015;-67
2024/03/31 08:52:30;;;;;;;8.07;2.20;;;;;;;19.01;39.12;94854.19;5155023;27;20114;-67
2024/03/31 08:54:56;;;;;;;9.52;4.57;;;;;;;19.05;39.19;94865.16;5136292;27;20041;-67
2024/03/31 08:57:22;;;;;;;5.78;2.05;;;;;;;19.38;37.75;94865.69;5136326;27;20095;-67
2024/03/31 08:59:49;;;;;;;5.75;1.83;;;;;;;18.72;39.33;94839.94;5102075;27;20484;-67
2024/03/31 09:02:16;;;;;;;6.55;3.20;;;;;;;19.31;38.68;94857.69;5120233;27;20030;-67
2024/03/31 09:04:42;;;;;;;6.32;2.20;;;;;;;19.47;38.33;94858.53;5136265;27;20034;-67
2024/03/31 09:07:08;;;;;;;9.20;3.20;;;;;;;19.17;39.17;94856.69;5136488;27;20027;-67
2024/03/31 09:09:34;;;;;;;18.60;9.88;;;;;;;19.27;38.88;94855.59;5118943;27;20034;-67
2024/03/31 09:12:00;;;;;;;13.30;8.05;;;;;;;19.31;38.71;94846.34;5102575;27;20155;-67
2024/03/31 09:14:25;;;;;;;6.53;2.92;;;;;;;19.30;39.02;94848.16;5101842;27;20114;-67
2024/03/31 09:16:51;;;;;;;8.55;3.13;;;;;;;19.62;38.73;94841.72;5154965;27;20027;-67
2024/03/31 09:19:16;;;;;;;7.90;1.92;;;;;;;19.34;38.21;94838.91;5154438;27;20035;-67
2024/03/31 09:21:43;;;;;;;8.35;2.03;;;;;;;19.54;38.36;94835.75;5135900;27;20038;-67
2024/03/31 09:24:09;;;;;;;12.63;2.60;;;;;;;19.71;39.54;94839.03;5154310;27;20026;-67
2024/03/31 09:26:34;;;;;;;7.68;3.92;;;;;;;19.54;38.31;94807.56;5154720;27;20106;-67
2024/03/31 09:29:00;;;;;;;11.77;2.50;;;;;;;19.71;38.18;94826.66;5154304;27;20091;-67
2024/03/31 09:31:25;;;;;;;5.18;2.15;;;;;;;19.68;38.12;94831.50;5118341;27;20038;-67
2024/03/31 09:33:51;;;;;;;4.90;2.15;;;;;;;19.79;37.38;94804.69;5154183;27;20038;-67
2024/03/31 09:36:16;;;;;;;5.22;1.77;;;;;;;19.77;37.07;94809.31;5118576;27;20027;-67
2024/03/31 09:38:42;;;;;;;4.18;1.90;;;;;;;19.93;36.99;94818.84;5135524;27;20461;-67
2024/03/31 09:41:07;;;;;;;8.00;2.30;;;;;;;20.00;37.64;94815.28;5154255;27;20031;-67
2024/03/31 09:43:33;;;;;;;6.95;2.45;;;;;;;20.34;36.21;94803.28;5135452;27;20026;-67
2024/03/31 09:45:58;;;;;;;6.28;2.00;;;;;;;20.21;36.60;94808.41;5118119;27;20022;-67
2024/03/31 09:48:25;;;;;;;13.02;2.30;;;;;;;20.46;37.13;94801.75;5118270;27;20404;-67
2024/03/31 09:50:58;;;;;;;6.50;1.70;;;;;;;20.24;36.30;94803.56;5118266;27;20485;-67
2024/03/31 09:53:23;;;;;;;5.75;1.92;;;;;;;20.46;36.38;94799.13;5118804;27;20058;-67
2024/03/31 09:55:49;;;;;;;10.40;2.38;;;;;;;20.55;35.72;94799.84;5135329;27;20031;-67
2024/03/31 09:58:14;;;;;;;6.97;2.08;;;;;;;20.42;36.06;94795.25;5118111;27;20086;-67
2024/03/31 10:00:40;;;;;;;7.72;1.80;;;;;;;20.44;35.81;94800.31;5153535;27;20391;-67
2024/03/31 10:03:12;;;;;;;6.63;1.70;;;;;;;20.66;35.78;94787.97;5135261;27;20480;-67
2024/03/31 10:05:39;;;;;;;5.80;1.90;;;;;;;20.89;35.29;94779.81;5118762;27;20480;-67
2024/03/31 10:08:06;;;;;;;8.98;2.33;;;;;;;21.01;35.29;94790.72;5118078;27;20022;-67
2024/03/31 10:10:31;;;;;;;5.93;2.20;;;;;;;20.70;35.78;94795.34;5117867;27;20034;-67
2024/03/31 10:12:57;;;;;;;5.18;1.77;;;;;;;20.68;35.44;94793.88;5134986;27;20026;-67
2024/03/31 10:15:23;;;;;;;8.88;2.15;;;;;;;20.82;35.80;94784.25;5117909;27;20154;-67
2024/03/31 10:17:49;;;;;;;6.38;1.90;;;;;;;20.90;35.22;94787.56;5117638;27;20031;-67
2024/03/31 10:20:14;;;;;;;7.47;1.90;;;;;;;21.04;35.66;94783.22;5135038;27;20041;-67
2024/03/31 10:22:41;;;;;;;7.45;1.77;;;;;;;21.01;35.00;94788.06;5117475;27;20022;-67
2024/03/31 10:25:07;;;;;;;9.15;2.05;;;;;;;21.11;34.87;94768.22;5134859;27;20026;-67
2024/03/31 10:27:32;;;;;;;6.55;1.88;;;;;;;21.14;35.25;94774.94;5117336;27;20030;-67
2024/03/31 10:29:58;;;;;;;7.88;2.17;;;;;;;21.44;35.03;94777.41;5117534;27;20033;-67
2024/03/31 10:32:23;;;;;;;7.45;2.50;;;;;;;21.64;34.93;94773.81;5116658;27;20030;-67
2024/03/31 10:34:49;;;;;;;4.78;2.03;;;;;;;21.57;35.06;94770.34;5153084;27;20030;-67
2024/03/31 10:37:14;;;;;;;7.72;2.20;;;;;;;21.78;34.24;94768.59;5134578;27;20103;-66
2024/03/31 10:39:42;;;;;;;7.35;1.95;;;;;;;21.44;34.91;94772.09;5117347;27;20103;-67
2024/03/31 10:42:08;;;;;;;7.57;2.10;;;;;;;21.44;34.97;94769.47;5100531;27;20037;-67
2024/03/31 10:44:33;;;;;;;6.93;1.95;;;;;;;21.34;35.65;94767.97;5152946;27;20019;-67
2024/03/31 10:46:58;;;;;;;5.55;1.90;;;;;;;21.59;35.28;94770.97;5117396;27;20034;-67
2024/03/31 10:49:40;;;;;;;6.47;1.98;;;;;;;21.28;35.50;94765.28;5134364;27;20018;-67
2024/03/31 10:52:06;;;;;;;8.57;2.25;;;;;;;21.35;35.52;94774.06;5118566;27;20125;-67
2024/03/31 10:54:35;;;;;;;6.38;2.30;;;;;;;21.40;35.57;94780.44;5152664;27;20025;-68
2024/03/31 10:57:02;;;;;;;7.18;2.45;;;;;;;21.42;36.16;94780.22;5134717;27;20079;-67
2024/03/31 10:59:29;;;;;;;8.35;2.38;;;;;;;21.35;36.86;94777.50;5134030;27;20034;-67
2024/03/31 11:02:08;;;;;;;6.75;2.40;;;;;;;21.56;36.01;94783.75;5153090;27;20110;-67
2024/03/31 11:04:34;;;;;;;7.32;2.50;;;;;;;21.46;36.21;94792.03;5118665;27;20023;-67
2024/03/31 11:07:00;;;;;;;6.95;2.40;;;;;;;21.67;36.05;94791.13;5152967;27;20050;-67
2024/03/31 11:09:26;;;;;;;8.38;2.58;;;;;;;21.40;36.04;94795.47;5134155;27;20083;-67
2024/03/31 11:11:51;;;;;;;4.70;1.92;;;;;;;21.39;36.32;94799.91;5117086;27;20030;-67
2024/03/31 11:14:17;;;;;;;12.95;2.85;;;;;;;21.41;36.60;94803.19;5133795;27;20019;-67
2024/03/31 11:16:42;;;;;;;8.88;2.40;;;;;;;21.61;35.80;94789.25;5134288;27;20493;-67
2024/03/31 11:19:07;;;;;;;7.13;2.10;;;;;;;21.94;35.72;94791.25;5116704;27;20022;-67
2024/03/31 11:21:33;;;;;;;8.63;2.38;;;;;;;21.79;35.52;94797.50;5116992;27;20058;-67
2024/03/31 11:24:00;;;;;;;13.45;3.88;;;;;;;21.54;35.17;94783.16;5116689;27;20019;-67